createdAt,value
2019-02-08T00:01:37.613Z,100.00
2019-02-08T00:04:06.418Z,100.00
2019-02-08T00:06:35.568Z,100.00
2019-02-08T00:09:44.236Z,100.00
2019-02-08T00:12:32.277Z,100.00
2019-02-08T00:15:01.232Z,100.00
2019-02-08T00:18:09.723Z,100.00
2019-02-08T00:20:38.380Z,100.00
2019-02-08T00:26:01.902Z,100.00
2019-02-08T00:28:30.621Z,100.00
2019-02-08T00:31:18.598Z,100.00
2019-02-08T00:33:47.425Z,100.00
2019-02-08T00:36:16.182Z,100.00
2019-02-08T00:38:44.866Z,100.00
2019-02-08T00:41:13.512Z,100.00
2019-02-08T00:43:42.267Z,100.00
2019-02-08T00:46:10.932Z,100.00
2019-02-08T00:48:39.646Z,100.00
2019-02-08T00:51:08.303Z,100.00
2019-02-08T00:53:37.004Z,100.00
2019-02-08T00:56:45.662Z,100.00
2019-02-08T00:59:16.016Z,100.00
2019-02-08T01:01:44.778Z,100.00
2019-02-08T01:04:13.480Z,100.00
2019-02-08T01:06:42.138Z,100.00
2019-02-08T01:09:10.952Z,100.00
2019-02-08T01:12:19.399Z,100.00
2019-02-08T01:14:48.081Z,100.00
2019-02-08T01:17:35.967Z,100.00
2019-02-08T01:20:44.438Z,100.00
2019-02-08T01:23:13.139Z,100.00
2019-02-08T01:25:43.559Z,99.25
2019-02-08T01:28:12.206Z,98.30
2019-02-08T01:30:40.852Z,97.57
2019-02-08T01:33:09.547Z,97.51
2019-02-08T01:35:38.446Z,97.52
2019-02-08T01:38:07.154Z,97.15
2019-02-08T01:41:15.572Z,96.91
2019-02-08T01:44:03.386Z,96.20
2019-02-08T01:46:51.313Z,95.52
2019-02-08T01:49:19.989Z,94.97
2019-02-08T01:52:07.929Z,94.82
2019-02-08T01:54:36.618Z,93.66
2019-02-08T01:59:52.878Z,93.35
2019-02-08T02:02:40.808Z,92.87
2019-02-08T02:05:09.622Z,92.56
2019-02-08T02:07:38.270Z,93.58
2019-02-08T02:10:27.440Z,93.62
2019-02-08T02:12:56.161Z,93.95
2019-02-08T02:15:44.229Z,94.39
2019-02-08T02:18:52.719Z,94.76
2019-02-08T02:21:21.371Z,94.49
2019-02-08T02:26:37.801Z,94.16
2019-02-08T02:29:06.529Z,94.75
2019-02-08T02:32:14.984Z,94.58
2019-02-08T02:34:43.772Z,95.01
2019-02-08T02:37:12.518Z,95.13
2019-02-08T02:39:41.286Z,95.40
2019-02-08T02:42:10.047Z,95.78
2019-02-08T02:44:38.823Z,95.90
2019-02-08T02:55:44.784Z,98.38
2019-02-08T02:58:13.496Z,99.18
2019-02-08T03:01:21.994Z,98.87
2019-02-08T03:03:50.770Z,98.70
2019-02-08T03:09:26.372Z,98.28
2019-02-08T03:11:55.092Z,98.28
2019-02-08T03:14:23.789Z,97.94
2019-02-08T03:17:04.286Z,97.25
2019-02-08T03:19:33.063Z,97.28
2019-02-08T03:22:01.804Z,97.48
2019-02-08T03:29:45.603Z,97.05
2019-02-08T03:32:14.386Z,96.93
2019-02-08T03:34:43.174Z,96.10
2019-02-08T03:37:11.906Z,96.26
2019-02-08T03:39:40.674Z,96.34
2019-02-08T03:42:09.331Z,96.72
2019-02-08T03:44:38.104Z,96.43
2019-02-08T03:47:06.770Z,96.81
2019-02-08T03:49:54.729Z,96.95
2019-02-08T03:52:42.641Z,96.92
2019-02-08T03:58:44.859Z,96.99
2019-02-08T04:01:13.585Z,97.25
2019-02-08T04:04:22.096Z,96.98
2019-02-08T04:06:50.792Z,97.18
2019-02-08T04:09:19.505Z,97.23
2019-02-08T04:11:48.209Z,97.11
2019-02-08T04:14:16.857Z,97.17
2019-02-08T04:16:45.624Z,97.46
2019-02-08T04:19:14.327Z,97.49
2019-02-08T04:21:43.049Z,97.66
2019-02-08T04:27:06.683Z,97.66
2019-02-08T04:29:35.456Z,97.86
2019-02-08T04:32:04.197Z,97.82
2019-02-08T04:37:27.972Z,98.16
2019-02-08T04:39:56.636Z,97.08
2019-02-08T04:42:25.362Z,96.77
2019-02-08T04:44:54.073Z,96.16
2019-02-08T04:47:22.837Z,95.96
2019-02-08T04:49:51.618Z,96.08
2019-02-08T04:52:20.370Z,96.16
2019-02-08T04:54:49.137Z,95.72
2019-02-08T04:57:17.869Z,95.28
2019-02-08T04:59:46.563Z,94.98
2019-02-08T05:02:15.290Z,94.72
2019-02-08T05:04:44.034Z,94.22
2019-02-08T05:07:12.747Z,94.68
2019-02-08T05:09:42.606Z,95.12
2019-02-08T05:12:11.930Z,95.58
2019-02-08T05:14:40.700Z,96.11
2019-02-08T05:17:28.663Z,96.34
2019-02-08T05:19:57.358Z,96.66
2019-02-08T05:22:45.326Z,96.80
2019-02-08T05:25:53.753Z,97.09
2019-02-08T05:30:57.072Z,98.06
2019-02-08T05:33:25.761Z,98.26
2019-02-08T05:35:54.578Z,98.35
2019-02-08T05:38:23.294Z,98.37
2019-02-08T05:40:52.086Z,98.31
2019-02-08T05:43:20.869Z,98.29
2019-02-08T05:48:23.331Z,97.66
2019-02-08T05:50:52.115Z,97.33
2019-02-08T05:53:20.899Z,97.61
2019-02-08T05:58:25.393Z,98.66
2019-02-08T06:03:43.618Z,99.43
2019-02-08T06:06:31.526Z,99.51
2019-02-08T06:09:00.299Z,99.59
2019-02-08T06:11:29.097Z,99.79
2019-02-08T06:13:57.857Z,99.89
2019-02-08T06:16:26.819Z,100.00
2019-02-08T06:18:55.602Z,100.00
2019-02-08T06:21:24.271Z,100.00
2019-02-08T06:23:52.968Z,100.00
2019-02-08T06:26:21.782Z,100.00
2019-02-08T06:28:50.488Z,100.00
2019-02-08T06:31:19.219Z,99.93
2019-02-08T06:33:47.954Z,100.00
2019-02-08T06:36:16.804Z,100.00
2019-02-08T06:38:45.538Z,100.00
2019-02-08T06:41:33.500Z,100.00
2019-02-08T06:44:02.166Z,100.00
2019-02-08T06:46:30.886Z,100.00
2019-02-08T06:48:59.583Z,100.00
2019-02-08T06:51:28.329Z,100.00
2019-02-08T06:57:03.807Z,100.00
2019-02-08T07:02:27.051Z,100.00
2019-02-08T07:05:14.893Z,100.00
2019-02-08T07:08:02.688Z,99.81
2019-02-08T07:10:50.519Z,99.50
2019-02-08T07:13:38.369Z,99.11
2019-02-08T07:16:26.159Z,99.05
2019-02-08T07:19:14.028Z,98.61
2019-02-08T07:22:01.850Z,97.95
2019-02-08T07:24:49.681Z,96.36
2019-02-08T07:27:37.481Z,95.48
2019-02-08T07:36:21.634Z,92.20
2019-02-08T07:39:30.070Z,92.16
2019-02-08T07:42:38.574Z,90.89
2019-02-08T07:45:47.022Z,90.47
2019-02-08T07:48:55.473Z,91.28
2019-02-08T07:54:39.264Z,90.72
2019-02-08T08:00:16.325Z,91.67
2019-02-08T08:03:24.833Z,91.41
2019-02-08T08:06:33.359Z,91.16
2019-02-08T08:09:41.807Z,90.94
2019-02-08T08:12:50.307Z,90.05
2019-02-08T08:19:07.042Z,90.10
2019-02-08T08:22:15.531Z,89.18
2019-02-08T08:25:23.992Z,88.53
2019-02-08T08:28:11.930Z,88.27
2019-02-08T08:34:09.726Z,86.80
2019-02-08T08:37:18.284Z,86.09
2019-02-08T08:40:25.549Z,85.64
2019-02-08T08:43:32.726Z,85.78
2019-02-08T08:46:39.963Z,86.18
2019-02-08T08:49:48.584Z,84.55
2019-02-08T08:52:55.818Z,84.32
2019-02-08T08:56:04.251Z,84.53
2019-02-08T08:59:11.491Z,84.17
2019-02-08T09:02:19.992Z,84.36
2019-02-08T09:05:27.280Z,84.14
2019-02-08T09:08:35.773Z,83.16
2019-02-08T09:11:43.069Z,83.26
2019-02-08T09:14:50.323Z,84.09
2019-02-08T09:17:57.557Z,82.30
2019-02-08T09:21:06.033Z,82.46
2019-02-08T09:24:13.256Z,81.65
2019-02-08T09:27:20.547Z,81.48
2019-02-08T09:30:27.845Z,79.97
2019-02-08T09:33:35.082Z,79.85
2019-02-08T09:36:47.332Z,78.38
2019-02-08T09:39:52.647Z,77.71
2019-02-08T09:42:59.826Z,76.51
2019-02-08T09:46:07.053Z,76.43
2019-02-08T09:49:14.241Z,75.98
2019-02-08T09:52:22.800Z,74.55
2019-02-08T09:55:30.019Z,74.98
2019-02-08T09:58:38.520Z,74.58
2019-02-08T10:01:45.763Z,75.16
2019-02-08T10:04:53.057Z,74.25
2019-02-08T10:08:00.322Z,72.60
2019-02-08T10:11:08.801Z,73.88
2019-02-08T10:14:16.049Z,72.42
2019-02-08T10:17:24.572Z,69.84
2019-02-08T10:20:31.806Z,69.02
2019-02-08T10:23:38.995Z,70.60
2019-02-08T10:26:46.236Z,71.03
2019-02-08T10:29:53.468Z,71.64
2019-02-08T10:33:00.631Z,70.24
2019-02-08T10:42:09.697Z,68.93
2019-02-08T10:45:18.166Z,69.55
2019-02-08T10:48:25.508Z,67.15
2019-02-08T10:51:32.741Z,65.34
2019-02-08T10:54:39.949Z,65.48
2019-02-08T10:57:47.177Z,66.07
2019-02-08T11:00:54.374Z,64.50
2019-02-08T11:04:02.879Z,65.16
2019-02-08T11:06:52.259Z,65.53
2019-02-08T11:09:59.508Z,65.14
2019-02-08T11:13:07.140Z,65.08
2019-02-08T11:16:14.404Z,64.27
2019-02-08T11:19:21.623Z,66.50
2019-02-08T11:22:30.076Z,65.14
2019-02-08T11:24:58.767Z,64.43
2019-02-08T11:27:27.524Z,64.42
2019-02-08T11:29:56.257Z,62.07
2019-02-08T11:32:26.627Z,62.22
2019-02-08T11:34:55.455Z,62.86
2019-02-08T11:37:24.120Z,62.85
2019-02-08T11:39:52.896Z,61.80
2019-02-08T11:42:21.578Z,61.78
2019-02-08T11:44:50.291Z,62.47
2019-02-08T11:47:19.030Z,61.13
2019-02-08T11:50:07.018Z,62.36
2019-02-08T11:52:35.753Z,59.26
2019-02-08T11:55:25.187Z,57.62
2019-02-08T11:57:53.892Z,58.60
2019-02-08T12:03:31.164Z,56.52
2019-02-08T12:05:59.860Z,58.38
2019-02-08T12:08:28.703Z,57.67
2019-02-08T12:10:57.415Z,56.77
2019-02-08T12:13:26.135Z,56.75
2019-02-08T12:15:54.861Z,57.94
2019-02-08T12:18:23.596Z,56.81
2019-02-08T12:20:52.340Z,57.43
2019-02-08T12:23:21.064Z,58.90
2019-02-08T12:25:49.765Z,58.51
2019-02-08T12:28:18.476Z,58.15
2019-02-08T12:31:26.957Z,56.09
2019-02-08T12:33:55.621Z,57.34
2019-02-08T12:39:19.385Z,55.59
2019-02-08T12:41:48.051Z,57.00
2019-02-08T12:44:36.108Z,55.92
2019-02-08T12:47:04.890Z,56.50
2019-02-08T12:49:33.616Z,57.10
2019-02-08T12:52:02.354Z,57.24
2019-02-08T12:54:31.139Z,55.56
2019-02-08T12:56:59.851Z,56.03
2019-02-08T12:59:28.573Z,57.21
2019-02-08T13:01:57.265Z,58.35
2019-02-08T13:04:26.052Z,57.27
2019-02-08T13:06:54.749Z,57.19
2019-02-08T13:09:42.769Z,57.70
2019-02-08T13:12:11.556Z,56.22
2019-02-08T13:14:40.228Z,56.75
2019-02-08T13:17:08.933Z,56.58
2019-02-08T13:19:37.598Z,57.30
2019-02-08T13:22:06.374Z,56.99
2019-02-08T13:24:35.037Z,56.95
2019-02-08T13:27:03.752Z,56.72
2019-02-08T13:29:32.412Z,58.00
2019-02-08T13:32:20.549Z,57.45
2019-02-08T13:35:29.244Z,58.96
2019-02-08T13:38:38.190Z,59.12
2019-02-08T13:41:07.008Z,59.35
2019-02-08T13:43:35.783Z,60.32
2019-02-08T13:46:04.564Z,60.74
2019-02-08T13:48:33.343Z,60.09
2019-02-08T13:51:02.273Z,61.02
2019-02-08T13:53:50.233Z,60.63
2019-02-08T13:56:19.104Z,61.91
2019-02-08T13:58:47.909Z,61.94
2019-02-08T14:01:16.604Z,61.53
2019-02-08T14:04:04.634Z,60.64
2019-02-08T14:06:33.423Z,61.90
2019-02-08T14:11:57.182Z,61.55
2019-02-08T14:14:25.843Z,61.41
2019-02-08T14:16:54.528Z,61.06
2019-02-08T14:19:23.315Z,62.39
2019-02-08T14:21:52.104Z,62.43
2019-02-08T14:24:20.771Z,62.59
2019-02-08T14:26:49.540Z,61.48
2019-02-08T14:29:18.199Z,62.51
2019-02-08T14:31:47.148Z,62.60
2019-02-08T14:34:15.865Z,62.10
2019-02-08T14:36:44.637Z,62.99
2019-02-08T14:39:13.364Z,61.96
2019-02-08T14:41:42.075Z,63.16
2019-02-08T14:44:10.855Z,62.44
2019-02-08T14:46:39.657Z,62.67
2019-02-08T14:49:08.418Z,63.18
2019-02-08T14:51:37.191Z,64.01
2019-02-08T14:54:06.098Z,64.49
2019-02-08T14:56:34.904Z,63.78
2019-02-08T14:59:03.639Z,64.12
2019-02-08T15:01:32.359Z,64.87
2019-02-08T15:04:01.145Z,64.32
2019-02-08T15:06:29.927Z,65.93
2019-02-08T15:08:58.706Z,65.43
2019-02-08T15:11:27.696Z,65.94
2019-02-08T15:13:56.360Z,65.72
2019-02-08T15:16:25.075Z,65.83
2019-02-08T15:18:53.745Z,65.82
2019-02-08T15:21:22.483Z,66.06
2019-02-08T15:23:51.174Z,65.75
2019-02-08T15:26:20.002Z,66.11
2019-02-08T15:28:48.664Z,66.31
2019-02-08T15:31:17.459Z,66.18
2019-02-08T15:33:46.300Z,66.01
2019-02-08T15:36:15.086Z,66.30
2019-02-08T15:39:03.113Z,66.35
2019-02-08T15:41:31.944Z,66.87
2019-02-08T15:44:00.678Z,68.00
2019-02-08T15:46:29.384Z,68.77
2019-02-08T15:48:58.126Z,68.72
2019-02-08T15:51:26.915Z,68.64
2019-02-08T15:53:55.717Z,69.37
2019-02-08T15:56:43.710Z,69.81
2019-02-08T15:59:12.490Z,70.63
2019-02-08T16:01:41.227Z,70.73
2019-02-08T16:04:21.816Z,70.80
2019-02-08T16:06:50.631Z,71.29
2019-02-08T16:09:59.470Z,71.74
2019-02-08T16:12:28.300Z,72.48
2019-02-08T16:14:57.041Z,72.72
2019-02-08T16:17:25.760Z,72.29
2019-02-08T16:19:54.500Z,73.17
2019-02-08T16:22:23.155Z,73.10
2019-02-08T16:24:51.980Z,73.76
2019-02-08T16:29:55.106Z,74.00
2019-02-08T16:32:23.762Z,73.90
2019-02-08T16:35:11.829Z,73.97
2019-02-08T16:37:40.678Z,74.38
2019-02-08T16:40:47.871Z,75.04
2019-02-08T16:43:16.596Z,75.41
2019-02-08T16:46:25.047Z,75.64
2019-02-08T16:48:53.961Z,76.06
2019-02-08T16:51:22.662Z,76.21
2019-02-08T16:53:53.618Z,76.51
2019-02-08T16:56:21.903Z,76.42
2019-02-08T16:58:57.837Z,76.43
2019-02-08T17:01:26.808Z,76.35
2019-02-08T17:03:55.526Z,76.34
2019-02-08T17:06:24.240Z,76.51
2019-02-08T17:12:00.936Z,75.62
2019-02-08T17:14:29.686Z,76.07
2019-02-08T17:16:58.386Z,75.67
2019-02-08T17:19:27.138Z,76.60
2019-02-08T17:21:55.939Z,76.05
2019-02-08T17:24:24.647Z,76.45
2019-02-08T17:26:53.307Z,76.60
2019-02-08T17:29:21.993Z,76.68
2019-02-08T17:31:50.681Z,76.61
2019-02-08T17:34:19.827Z,76.47
2019-02-08T17:36:48.489Z,76.80
2019-02-08T17:39:17.455Z,77.07
2019-02-08T17:41:46.174Z,77.15
2019-02-08T17:44:34.199Z,76.85
2019-02-08T17:47:02.896Z,76.98
2019-02-08T17:49:31.720Z,77.25
2019-02-08T17:52:00.451Z,77.07
2019-02-08T17:54:29.177Z,77.32
2019-02-08T17:56:57.946Z,77.05
2019-02-08T17:59:26.712Z,77.50
2019-02-08T18:01:55.450Z,77.81
2019-02-08T18:04:24.226Z,77.63
2019-02-08T18:06:53.010Z,77.36
2019-02-08T18:12:09.789Z,76.70
2019-02-08T18:14:38.525Z,76.19
2019-02-08T18:17:26.559Z,75.39
2019-02-08T18:19:55.216Z,75.55
2019-02-08T18:22:24.088Z,75.04
2019-02-08T18:24:52.849Z,74.78
2019-02-08T18:27:21.722Z,75.25
2019-02-08T18:29:50.538Z,75.36
2019-02-08T18:32:19.293Z,75.46
2019-02-08T18:34:47.987Z,75.03
2019-02-08T18:37:16.729Z,74.52
2019-02-08T18:39:45.565Z,74.63
2019-02-08T18:42:14.328Z,74.75
2019-02-08T18:44:43.028Z,74.76
2019-02-08T18:47:31.097Z,75.18
2019-02-08T18:50:18.938Z,74.45
2019-02-08T18:52:47.579Z,74.41
2019-02-08T18:55:16.346Z,74.92
2019-02-08T18:57:45.010Z,74.09
2019-02-08T19:00:53.556Z,74.19
2019-02-08T19:04:02.005Z,74.22
2019-02-08T19:06:30.774Z,74.00
2019-02-08T19:08:59.437Z,74.52
2019-02-08T19:11:47.267Z,74.35
2019-02-08T19:14:35.141Z,74.28
2019-02-08T19:19:38.194Z,74.31
2019-02-08T19:22:06.960Z,73.75
2019-02-08T19:24:35.667Z,73.61
2019-02-08T19:27:04.498Z,73.35
2019-02-08T19:29:52.354Z,73.87
2019-02-08T19:32:40.416Z,73.52
2019-02-08T19:35:48.906Z,73.85
2019-02-08T19:38:17.610Z,74.50
2019-02-08T19:41:26.063Z,74.18
2019-02-08T19:43:54.837Z,74.39
2019-02-08T19:46:23.509Z,73.98
2019-02-08T19:48:52.222Z,74.81
2019-02-08T19:51:20.940Z,75.12
2019-02-08T19:53:49.607Z,75.28
2019-02-08T19:56:18.476Z,74.82
2019-02-08T19:59:06.259Z,74.91
2019-02-08T20:04:09.191Z,75.24
2019-02-08T20:06:37.916Z,75.09
2019-02-08T20:09:46.589Z,74.85
2019-02-08T20:12:15.232Z,73.23
2019-02-08T20:14:44.004Z,72.98
2019-02-08T20:17:12.780Z,73.24
2019-02-08T20:19:41.443Z,73.87
2019-02-08T20:22:10.355Z,73.51
2019-02-08T20:24:58.312Z,72.80
2019-02-08T20:27:46.291Z,71.98
2019-02-08T20:30:54.746Z,71.67
2019-02-08T20:33:23.521Z,71.15
2019-02-08T20:35:52.238Z,71.07
2019-02-08T20:38:20.949Z,70.51
2019-02-08T20:41:29.393Z,70.60
2019-02-08T20:43:58.103Z,70.54
2019-02-08T20:51:48.595Z,69.76
2019-02-08T20:54:17.343Z,70.22
2019-02-08T20:56:46.135Z,70.46
2019-02-08T20:59:15.009Z,70.54
2019-02-08T21:01:43.923Z,71.32
2019-02-08T21:04:31.761Z,69.86
2019-02-08T21:07:00.467Z,70.45
2019-02-08T21:09:29.187Z,71.15
2019-02-08T21:12:17.222Z,69.81
2019-02-08T21:14:45.931Z,70.41
2019-02-08T21:17:14.670Z,70.10
2019-02-08T21:19:43.372Z,68.66
2019-02-08T21:22:12.034Z,69.70
2019-02-08T21:25:00.011Z,67.78
2019-02-08T21:27:28.705Z,67.31
2019-02-08T21:29:57.449Z,67.10
2019-02-08T21:32:26.248Z,66.92
2019-02-08T21:34:55.026Z,66.82
2019-02-08T21:37:23.689Z,67.56
2019-02-08T21:39:52.385Z,68.15
2019-02-08T21:42:21.156Z,68.79
2019-02-08T21:44:49.861Z,69.12
2019-02-08T21:47:18.591Z,69.48
2019-02-08T21:49:47.307Z,69.90
2019-02-08T21:52:16.044Z,70.26
2019-02-08T21:57:19.286Z,69.28
2019-02-08T21:59:48.066Z,69.89
2019-02-08T22:02:16.721Z,69.82
2019-02-08T22:04:45.453Z,70.27
2019-02-08T22:07:14.111Z,70.91
2019-02-08T22:10:22.617Z,69.97
2019-02-08T22:12:51.264Z,69.24
2019-02-08T22:15:40.200Z,68.79
2019-02-08T22:21:04.100Z,67.85
2019-02-08T22:26:20.446Z,68.05
2019-02-08T22:29:14.000Z,67.84
2019-02-08T22:31:38.810Z,67.67
2019-02-08T22:36:55.083Z,68.29
2019-02-08T22:39:23.743Z,69.28
2019-02-08T22:41:52.441Z,68.27
2019-02-08T22:44:40.398Z,68.56
2019-02-08T22:49:56.670Z,68.39
2019-02-08T22:52:44.618Z,67.84
2019-02-08T22:55:53.140Z,68.26
2019-02-08T22:58:41.150Z,68.17
2019-02-08T23:01:29.652Z,66.74
2019-02-08T23:03:58.350Z,66.82
2019-02-08T23:06:44.279Z,65.56
2019-02-08T23:08:57.756Z,65.93
2019-02-08T23:14:34.593Z,66.59
2019-02-08T23:17:03.259Z,65.94
2019-02-08T23:19:31.992Z,66.66
2019-02-08T23:25:07.734Z,67.01
2019-02-08T23:27:36.437Z,66.62
2019-02-08T23:30:44.931Z,66.15
2019-02-08T23:33:13.761Z,65.56
2019-02-08T23:35:43.328Z,66.55
2019-02-08T23:38:14.165Z,67.03
2019-02-08T23:40:42.994Z,66.71
2019-02-08T23:43:11.694Z,65.66
2019-02-08T23:45:40.360Z,62.60
2019-02-08T23:48:09.840Z,61.69
2019-02-08T23:50:38.597Z,60.10
2019-02-08T23:53:47.083Z,60.09
2019-02-08T23:56:17.355Z,59.62
2019-02-08T23:59:26.245Z,59.49
